sensor_id;sensor_type;location;lat;lon;timestamp;pressure;altitude;pressure_sealevel;temperature;humidity
49645;BME280;36494;50.730;-1.932;2023-07-20T00:01:22;101213.97;;;15.57;100.00
49645;BME280;36494;50.730;-1.932;2023-07-20T00:03:48;101215.06;;;15.57;100.00
49645;BME280;36494;50.730;-1.932;2023-07-20T00:06:12;101212.13;;;15.57;100.00
49645;BME280;36494;50.730;-1.932;2023-07-20T00:08:38;101209.47;;;15.58;100.00
49645;BME280;36494;50.730;-1.932;2023-07-20T00:11:03;101205.88;;;15.50;100.00
49645;BME280;36494;50.730;-1.932;2023-07-20T00:13:28;101207.04;;;15.54;100.00
49645;BME280;36494;50.730;-1.932;2023-07-20T00:15:54;101204.81;;;15.48;100.00
49645;BME280;36494;50.730;-1.932;2023-07-20T00:18:19;101204.70;;;15.37;100.00
49645;BME280;36494;50.730;-1.932;2023-07-20T00:20:44;101204.63;;;15.34;100.00
49645;BME280;36494;50.730;-1.932;2023-07-20T00:23:10;101204.92;;;15.40;100.00
49645;BME280;36494;50.730;-1.932;2023-07-20T00:25:35;101204.30;;;15.37;100.00
49645;BME280;36494;50.730;-1.932;2023-07-20T00:28:01;101207.80;;;15.35;100.00
49645;BME280;36494;50.730;-1.932;2023-07-20T00:30:26;101204.72;;;15.41;100.00
49645;BME280;36494;50.730;-1.932;2023-07-20T00:32:51;101206.58;;;15.35;100.00
49645;BME280;36494;50.730;-1.932;2023-07-20T00:35:16;101203.60;;;15.34;100.00
49645;BME280;36494;50.730;-1.932;2023-07-20T00:37:42;101203.61;;;15.32;100.00
49645;BME280;36494;50.730;-1.932;2023-07-20T00:40:07;101203.01;;;15.36;100.00
49645;BME280;36494;50.730;-1.932;2023-07-20T00:42:32;101204.18;;;15.37;100.00
49645;BME280;36494;50.730;-1.932;2023-07-20T00:44:57;101203.33;;;15.31;100.00
49645;BME280;36494;50.730;-1.932;2023-07-20T00:47:23;101203.29;;;15.28;100.00
49645;BME280;36494;50.730;-1.932;2023-07-20T00:49:48;101201.45;;;15.20;100.00
49645;BME280;36494;50.730;-1.932;2023-07-20T00:52:14;101194.76;;;15.24;100.00
49645;BME280;36494;50.730;-1.932;2023-07-20T00:54:39;101194.23;;;15.22;100.00
49645;BME280;36494;50.730;-1.932;2023-07-20T00:57:04;101195.45;;;15.18;100.00
49645;BME280;36494;50.730;-1.932;2023-07-20T00:59:30;101195.14;;;15.16;100.00
49645;BME280;36494;50.730;-1.932;2023-07-20T01:01:55;101190.82;;;15.14;100.00
49645;BME280;36494;50.730;-1.932;2023-07-20T01:04:21;101189.05;;;15.17;100.00
49645;BME280;36494;50.730;-1.932;2023-07-20T01:06:53;101190.02;;;15.06;100.00
49645;BME280;36494;50.730;-1.932;2023-07-20T01:09:14;101185.93;;;15.04;100.00
49645;BME280;36494;50.730;-1.932;2023-07-20T01:11:40;101181.48;;;15.04;100.00
49645;BME280;36494;50.730;-1.932;2023-07-20T01:14:03;101181.49;;;14.92;100.00
49645;BME280;36494;50.730;-1.932;2023-07-20T01:16:28;101180.16;;;14.86;100.00
49645;BME280;36494;50.730;-1.932;2023-07-20T01:18:53;101178.13;;;14.87;100.00
49645;BME280;36494;50.730;-1.932;2023-07-20T01:21:26;101176.62;;;14.80;100.00
49645;BME280;36494;50.730;-1.932;2023-07-20T01:24:00;101176.82;;;14.80;100.00
49645;BME280;36494;50.730;-1.932;2023-07-20T01:26:22;101179.55;;;14.83;100.00
49645;BME280;36494;50.730;-1.932;2023-07-20T01:28:42;101177.04;;;14.85;100.00
49645;BME280;36494;50.730;-1.932;2023-07-20T01:31:13;101175.86;;;14.81;100.00
49645;BME280;36494;50.730;-1.932;2023-07-20T01:33:25;101177.59;;;14.79;100.00
49645;BME280;36494;50.730;-1.932;2023-07-20T01:35:55;101177.30;;;14.77;100.00
49645;BME280;36494;50.730;-1.932;2023-07-20T01:38:16;101178.34;;;14.72;100.00
49645;BME280;36494;50.730;-1.932;2023-07-20T01:40:41;101178.19;;;14.72;100.00
49645;BME280;36494;50.730;-1.932;2023-07-20T01:43:06;101173.53;;;14.69;100.00
49645;BME280;36494;50.730;-1.932;2023-07-20T01:45:31;101174.54;;;14.69;100.00
49645;BME280;36494;50.730;-1.932;2023-07-20T01:47:57;101172.85;;;14.60;100.00
49645;BME280;36494;50.730;-1.932;2023-07-20T01:50:22;101174.53;;;14.64;100.00
49645;BME280;36494;50.730;-1.932;2023-07-20T01:52:47;101174.77;;;14.58;100.00
49645;BME280;36494;50.730;-1.932;2023-07-20T01:55:13;101174.92;;;14.55;100.00
49645;BME280;36494;50.730;-1.932;2023-07-20T01:57:38;101173.86;;;14.56;100.00
49645;BME280;36494;50.730;-1.932;2023-07-20T02:00:14;101171.50;;;14.56;100.00
49645;BME280;36494;50.730;-1.932;2023-07-20T02:02:29;101170.75;;;14.56;100.00
49645;BME280;36494;50.730;-1.932;2023-07-20T02:04:55;101167.35;;;14.53;100.00
49645;BME280;36494;50.730;-1.932;2023-07-20T02:07:20;101166.74;;;14.52;100.00
49645;BME280;36494;50.730;-1.932;2023-07-20T02:09:46;101162.45;;;14.52;100.00
49645;BME280;36494;50.730;-1.932;2023-07-20T02:12:12;101160.60;;;14.48;100.00
49645;BME280;36494;50.730;-1.932;2023-07-20T02:14:37;101161.07;;;14.44;100.00
49645;BME280;36494;50.730;-1.932;2023-07-20T02:17:03;101159.52;;;14.47;100.00
49645;BME280;36494;50.730;-1.932;2023-07-20T02:19:30;101158.80;;;14.47;100.00
49645;BME280;36494;50.730;-1.932;2023-07-20T02:21:53;101155.83;;;14.43;100.00
49645;BME280;36494;50.730;-1.932;2023-07-20T02:24:19;101154.52;;;14.44;100.00
49645;BME280;36494;50.730;-1.932;2023-07-20T02:26:44;101156.29;;;14.40;100.00
49645;BME280;36494;50.730;-1.932;2023-07-20T02:29:09;101156.46;;;14.42;100.00
49645;BME280;36494;50.730;-1.932;2023-07-20T02:31:35;101160.50;;;14.42;100.00
49645;BME280;36494;50.730;-1.932;2023-07-20T02:34:00;101160.09;;;14.39;100.00
49645;BME280;36494;50.730;-1.932;2023-07-20T02:36:26;101161.35;;;14.37;100.00
49645;BME280;36494;50.730;-1.932;2023-07-20T02:38:51;101161.99;;;14.35;100.00
49645;BME280;36494;50.730;-1.932;2023-07-20T02:41:16;101159.84;;;14.34;100.00
49645;BME280;36494;50.730;-1.932;2023-07-20T02:43:41;101161.25;;;14.32;100.00
49645;BME280;36494;50.730;-1.932;2023-07-20T02:46:07;101162.53;;;14.24;100.00
49645;BME280;36494;50.730;-1.932;2023-07-20T02:48:32;101160.53;;;14.21;100.00
49645;BME280;36494;50.730;-1.932;2023-07-20T02:50:58;101158.15;;;14.21;100.00
49645;BME280;36494;50.730;-1.932;2023-07-20T02:53:23;101159.62;;;14.21;100.00
49645;BME280;36494;50.730;-1.932;2023-07-20T02:55:48;101158.09;;;14.21;100.00
49645;BME280;36494;50.730;-1.932;2023-07-20T02:58:14;101159.44;;;14.20;100.00
49645;BME280;36494;50.730;-1.932;2023-07-20T03:00:39;101162.41;;;14.21;100.00
49645;BME280;36494;50.730;-1.932;2023-07-20T03:03:04;101163.81;;;14.17;100.00
49645;BME280;36494;50.730;-1.932;2023-07-20T03:05:30;101157.43;;;14.11;100.00
49645;BME280;36494;50.730;-1.932;2023-07-20T03:07:55;101155.92;;;14.11;100.00
49645;BME280;36494;50.730;-1.932;2023-07-20T03:10:20;101154.56;;;14.10;100.00
49645;BME280;36494;50.730;-1.932;2023-07-20T03:12:46;101153.15;;;14.08;100.00
49645;BME280;36494;50.730;-1.932;2023-07-20T03:15:11;101153.57;;;14.07;100.00
49645;BME280;36494;50.730;-1.932;2023-07-20T03:17:36;101153.60;;;13.99;100.00
49645;BME280;36494;50.730;-1.932;2023-07-20T03:20:02;101153.22;;;13.98;100.00
49645;BME280;36494;50.730;-1.932;2023-07-20T03:22:27;101154.32;;;13.96;100.00
49645;BME280;36494;50.730;-1.932;2023-07-20T03:24:52;101155.32;;;13.95;100.00
49645;BME280;36494;50.730;-1.932;2023-07-20T03:27:18;101154.93;;;13.96;100.00
49645;BME280;36494;50.730;-1.932;2023-07-20T03:29:43;101154.17;;;13.91;100.00
49645;BME280;36494;50.730;-1.932;2023-07-20T03:32:09;101153.59;;;13.89;100.00
49645;BME280;36494;50.730;-1.932;2023-07-20T03:34:34;101154.12;;;13.88;100.00
49645;BME280;36494;50.730;-1.932;2023-07-20T03:36:59;101150.90;;;13.80;100.00
49645;BME280;36494;50.730;-1.932;2023-07-20T03:39:25;101149.32;;;13.74;100.00
49645;BME280;36494;50.730;-1.932;2023-07-20T03:41:50;101151.25;;;13.70;100.00
49645;BME280;36494;50.730;-1.932;2023-07-20T03:44:15;101153.90;;;13.69;100.00
49645;BME280;36494;50.730;-1.932;2023-07-20T03:46:40;101151.42;;;13.72;100.00
49645;BME280;36494;50.730;-1.932;2023-07-20T03:49:05;101150.88;;;13.72;100.00
49645;BME280;36494;50.730;-1.932;2023-07-20T03:51:31;101147.87;;;13.67;100.00
49645;BME280;36494;50.730;-1.932;2023-07-20T03:53:57;101151.40;;;13.68;100.00
49645;BME280;36494;50.730;-1.932;2023-07-20T03:56:22;101150.45;;;13.64;100.00
49645;BME280;36494;50.730;-1.932;2023-07-20T03:58:48;101152.82;;;13.59;100.00
49645;BME280;36494;50.730;-1.932;2023-07-20T04:01:13;101152.65;;;13.58;100.00
49645;BME280;36494;50.730;-1.932;2023-07-20T04:03:38;101153.13;;;13.54;100.00
49645;BME280;36494;50.730;-1.932;2023-07-20T04:06:04;101154.60;;;13.54;100.00
49645;BME280;36494;50.730;-1.932;2023-07-20T04:08:29;101151.00;;;13.52;100.00
49645;BME280;36494;50.730;-1.932;2023-07-20T04:10:55;101151.43;;;13.52;100.00
49645;BME280;36494;50.730;-1.932;2023-07-20T04:13:21;101149.76;;;13.48;100.00
49645;BME280;36494;50.730;-1.932;2023-07-20T04:15:45;101149.63;;;13.45;100.00
49645;BME280;36494;50.730;-1.932;2023-07-20T04:18:11;101149.49;;;13.43;100.00
49645;BME280;36494;50.730;-1.932;2023-07-20T04:20:36;101148.71;;;13.37;100.00
49645;BME280;36494;50.730;-1.932;2023-07-20T04:23:01;101148.95;;;13.41;100.00
49645;BME280;36494;50.730;-1.932;2023-07-20T04:25:26;101150.57;;;13.37;100.00
49645;BME280;36494;50.730;-1.932;2023-07-20T04:27:52;101149.87;;;13.34;100.00
49645;BME280;36494;50.730;-1.932;2023-07-20T04:30:18;101145.95;;;13.30;100.00
49645;BME280;36494;50.730;-1.932;2023-07-20T04:32:42;101144.00;;;13.29;100.00
49645;BME280;36494;50.730;-1.932;2023-07-20T04:35:08;101142.47;;;13.26;100.00
49645;BME280;36494;50.730;-1.932;2023-07-20T04:37:33;101143.48;;;13.29;100.00
49645;BME280;36494;50.730;-1.932;2023-07-20T04:39:59;101146.76;;;13.31;100.00
49645;BME280;36494;50.730;-1.932;2023-07-20T04:42:24;101147.98;;;13.29;100.00
49645;BME280;36494;50.730;-1.932;2023-07-20T04:44:50;101149.03;;;13.29;100.00
49645;BME280;36494;50.730;-1.932;2023-07-20T04:47:15;101151.20;;;13.28;100.00
49645;BME280;36494;50.730;-1.932;2023-07-20T04:49:40;101149.52;;;13.29;100.00
49645;BME280;36494;50.730;-1.932;2023-07-20T04:52:06;101152.02;;;13.29;100.00
49645;BME280;36494;50.730;-1.932;2023-07-20T04:54:31;101154.09;;;13.28;100.00
49645;BME280;36494;50.730;-1.932;2023-07-20T04:56:57;101152.31;;;13.28;100.00
49645;BME280;36494;50.730;-1.932;2023-07-20T04:59:22;101153.67;;;13.27;100.00
49645;BME280;36494;50.730;-1.932;2023-07-20T05:01:47;101153.75;;;13.27;100.00
49645;BME280;36494;50.730;-1.932;2023-07-20T05:04:13;101153.38;;;13.25;100.00
49645;BME280;36494;50.730;-1.932;2023-07-20T05:06:39;101154.41;;;13.25;100.00
49645;BME280;36494;50.730;-1.932;2023-07-20T05:09:04;101153.35;;;13.26;100.00
49645;BME280;36494;50.730;-1.932;2023-07-20T05:11:29;101153.85;;;13.25;100.00
49645;BME280;36494;50.730;-1.932;2023-07-20T05:13:55;101155.01;;;13.24;100.00
49645;BME280;36494;50.730;-1.932;2023-07-20T05:16:20;101155.51;;;13.24;100.00
49645;BME280;36494;50.730;-1.932;2023-07-20T05:18:45;101154.63;;;13.24;100.00
49645;BME280;36494;50.730;-1.932;2023-07-20T05:21:11;101155.88;;;13.23;100.00
49645;BME280;36494;50.730;-1.932;2023-07-20T05:23:36;101156.78;;;13.24;100.00
49645;BME280;36494;50.730;-1.932;2023-07-20T05:26:01;101154.16;;;13.24;100.00
49645;BME280;36494;50.730;-1.932;2023-07-20T05:28:27;101155.53;;;13.25;100.00
49645;BME280;36494;50.730;-1.932;2023-07-20T05:30:53;101154.46;;;13.25;100.00
49645;BME280;36494;50.730;-1.932;2023-07-20T05:33:18;101152.83;;;13.24;100.00
49645;BME280;36494;50.730;-1.932;2023-07-20T05:35:44;101152.25;;;13.25;100.00
49645;BME280;36494;50.730;-1.932;2023-07-20T05:38:09;101149.93;;;13.28;100.00
49645;BME280;36494;50.730;-1.932;2023-07-20T05:40:37;101150.31;;;13.30;100.00
49645;BME280;36494;50.730;-1.932;2023-07-20T05:43:00;101150.34;;;13.31;100.00
49645;BME280;36494;50.730;-1.932;2023-07-20T05:45:25;101150.67;;;13.34;100.00
49645;BME280;36494;50.730;-1.932;2023-07-20T05:47:50;101151.44;;;13.37;100.00
49645;BME280;36494;50.730;-1.932;2023-07-20T05:50:16;101151.80;;;13.38;100.00
49645;BME280;36494;50.730;-1.932;2023-07-20T05:52:41;101150.24;;;13.38;100.00
49645;BME280;36494;50.730;-1.932;2023-07-20T05:55:07;101148.43;;;13.39;100.00
49645;BME280;36494;50.730;-1.932;2023-07-20T05:57:32;101148.54;;;13.43;100.00
49645;BME280;36494;50.730;-1.932;2023-07-20T05:59:57;101150.81;;;13.44;100.00
49645;BME280;36494;50.730;-1.932;2023-07-20T06:02:22;101152.82;;;13.47;100.00
49645;BME280;36494;50.730;-1.932;2023-07-20T06:04:48;101153.87;;;13.49;100.00
49645;BME280;36494;50.730;-1.932;2023-07-20T06:07:13;101157.42;;;13.51;100.00
49645;BME280;36494;50.730;-1.932;2023-07-20T06:09:39;101158.64;;;13.52;100.00
49645;BME280;36494;50.730;-1.932;2023-07-20T06:12:04;101156.70;;;13.55;100.00
49645;BME280;36494;50.730;-1.932;2023-07-20T06:14:29;101155.25;;;13.60;100.00
49645;BME280;36494;50.730;-1.932;2023-07-20T06:16:54;101154.92;;;13.62;100.00
49645;BME280;36494;50.730;-1.932;2023-07-20T06:19:20;101154.70;;;13.66;100.00
49645;BME280;36494;50.730;-1.932;2023-07-20T06:21:45;101155.69;;;13.70;100.00
49645;BME280;36494;50.730;-1.932;2023-07-20T06:24:10;101156.59;;;13.73;100.00
49645;BME280;36494;50.730;-1.932;2023-07-20T06:26:36;101156.36;;;13.77;100.00
49645;BME280;36494;50.730;-1.932;2023-07-20T06:29:02;101155.92;;;13.81;100.00
49645;BME280;36494;50.730;-1.932;2023-07-20T06:31:27;101152.19;;;13.84;100.00
49645;BME280;36494;50.730;-1.932;2023-07-20T06:33:53;101156.30;;;13.88;100.00
49645;BME280;36494;50.730;-1.932;2023-07-20T06:36:18;101155.00;;;13.91;100.00
49645;BME280;36494;50.730;-1.932;2023-07-20T06:38:43;101153.88;;;13.94;100.00
49645;BME280;36494;50.730;-1.932;2023-07-20T06:41:09;101154.97;;;13.99;100.00
49645;BME280;36494;50.730;-1.932;2023-07-20T06:43:34;101154.45;;;14.02;100.00
49645;BME280;36494;50.730;-1.932;2023-07-20T06:45:59;101156.75;;;14.07;100.00
49645;BME280;36494;50.730;-1.932;2023-07-20T06:48:25;101153.37;;;14.11;100.00
49645;BME280;36494;50.730;-1.932;2023-07-20T06:50:51;101151.98;;;14.16;100.00
49645;BME280;36494;50.730;-1.932;2023-07-20T06:53:16;101151.40;;;14.19;100.00
49645;BME280;36494;50.730;-1.932;2023-07-20T06:55:42;101150.69;;;14.23;100.00
49645;BME280;36494;50.730;-1.932;2023-07-20T06:58:06;101149.35;;;14.28;100.00
49645;BME280;36494;50.730;-1.932;2023-07-20T07:00:32;101147.49;;;14.32;100.00
49645;BME280;36494;50.730;-1.932;2023-07-20T07:02:57;101144.71;;;14.37;100.00
49645;BME280;36494;50.730;-1.932;2023-07-20T07:05:22;101147.26;;;14.42;100.00
49645;BME280;36494;50.730;-1.932;2023-07-20T07:07:48;101146.62;;;14.47;100.00
49645;BME280;36494;50.730;-1.932;2023-07-20T07:10:13;101148.14;;;14.53;100.00
49645;BME280;36494;50.730;-1.932;2023-07-20T07:12:38;101148.49;;;14.57;100.00
49645;BME280;36494;50.730;-1.932;2023-07-20T07:15:05;101153.47;;;14.61;100.00
49645;BME280;36494;50.730;-1.932;2023-07-20T07:17:30;101150.27;;;14.65;100.00
49645;BME280;36494;50.730;-1.932;2023-07-20T07:19:55;101149.81;;;14.71;100.00
49645;BME280;36494;50.730;-1.932;2023-07-20T07:22:21;101147.33;;;14.75;100.00
49645;BME280;36494;50.730;-1.932;2023-07-20T07:24:46;101149.40;;;14.79;100.00
49645;BME280;36494;50.730;-1.932;2023-07-20T07:27:11;101146.80;;;14.85;100.00
49645;BME280;36494;50.730;-1.932;2023-07-20T07:29:37;101147.52;;;14.91;100.00
49645;BME280;36494;50.730;-1.932;2023-07-20T07:32:02;101142.79;;;14.95;100.00
49645;BME280;36494;50.730;-1.932;2023-07-20T07:34:27;101139.34;;;15.01;100.00
49645;BME280;36494;50.730;-1.932;2023-07-20T07:36:52;101139.98;;;15.06;100.00
49645;BME280;36494;50.730;-1.932;2023-07-20T07:39:18;101138.88;;;15.09;100.00
49645;BME280;36494;50.730;-1.932;2023-07-20T07:41:43;101140.37;;;15.15;100.00
49645;BME280;36494;50.730;-1.932;2023-07-20T07:44:08;101137.88;;;15.18;100.00
49645;BME280;36494;50.730;-1.932;2023-07-20T07:46:34;101138.79;;;15.23;100.00
49645;BME280;36494;50.730;-1.932;2023-07-20T07:48:59;101138.33;;;15.27;100.00
49645;BME280;36494;50.730;-1.932;2023-07-20T07:51:24;101137.05;;;15.34;100.00
49645;BME280;36494;50.730;-1.932;2023-07-20T07:53:50;101141.51;;;15.41;100.00
49645;BME280;36494;50.730;-1.932;2023-07-20T07:56:15;101137.01;;;15.46;100.00
49645;BME280;36494;50.730;-1.932;2023-07-20T07:58:40;101135.01;;;15.59;100.00
49645;BME280;36494;50.730;-1.932;2023-07-20T08:01:05;101135.05;;;15.62;100.00
49645;BME280;36494;50.730;-1.932;2023-07-20T08:03:31;101136.76;;;15.67;100.00
49645;BME280;36494;50.730;-1.932;2023-07-20T08:05:56;101135.10;;;15.69;100.00
49645;BME280;36494;50.730;-1.932;2023-07-20T08:08:21;101136.56;;;15.76;100.00
49645;BME280;36494;50.730;-1.932;2023-07-20T08:10:47;101138.53;;;15.82;100.00
49645;BME280;36494;50.730;-1.932;2023-07-20T08:13:12;101137.08;;;15.86;100.00
49645;BME280;36494;50.730;-1.932;2023-07-20T08:15:37;101137.74;;;15.94;100.00
49645;BME280;36494;50.730;-1.932;2023-07-20T08:18:02;101134.77;;;15.99;100.00
49645;BME280;36494;50.730;-1.932;2023-07-20T08:20:28;101137.34;;;16.06;100.00
49645;BME280;36494;50.730;-1.932;2023-07-20T08:22:54;101136.09;;;16.17;100.00
49645;BME280;36494;50.730;-1.932;2023-07-20T08:25:18;101134.81;;;16.29;100.00
49645;BME280;36494;50.730;-1.932;2023-07-20T08:27:43;101129.33;;;16.32;100.00
49645;BME280;36494;50.730;-1.932;2023-07-20T08:30:09;101128.95;;;16.38;100.00
49645;BME280;36494;50.730;-1.932;2023-07-20T08:32:34;101130.65;;;16.45;100.00
49645;BME280;36494;50.730;-1.932;2023-07-20T08:34:59;101132.46;;;16.52;100.00
49645;BME280;36494;50.730;-1.932;2023-07-20T08:37:25;101129.84;;;16.58;100.00
49645;BME280;36494;50.730;-1.932;2023-07-20T08:39:50;101126.78;;;16.64;100.00
49645;BME280;36494;50.730;-1.932;2023-07-20T08:42:16;101126.40;;;16.71;100.00
49645;BME280;36494;50.730;-1.932;2023-07-20T08:44:41;101125.35;;;16.78;100.00
49645;BME280;36494;50.730;-1.932;2023-07-20T08:47:07;101122.53;;;16.90;100.00
49645;BME280;36494;50.730;-1.932;2023-07-20T08:49:32;101120.58;;;16.94;100.00
49645;BME280;36494;50.730;-1.932;2023-07-20T08:51:58;101125.76;;;17.11;100.00
49645;BME280;36494;50.730;-1.932;2023-07-20T08:54:22;101123.74;;;17.12;100.00
49645;BME280;36494;50.730;-1.932;2023-07-20T08:56:48;101121.45;;;17.16;100.00
49645;BME280;36494;50.730;-1.932;2023-07-20T08:59:15;101120.20;;;17.22;100.00
49645;BME280;36494;50.730;-1.932;2023-07-20T09:01:39;101119.32;;;17.26;100.00
49645;BME280;36494;50.730;-1.932;2023-07-20T09:04:03;101120.60;;;17.35;100.00
49645;BME280;36494;50.730;-1.932;2023-07-20T09:06:29;101122.37;;;17.47;100.00
49645;BME280;36494;50.730;-1.932;2023-07-20T09:08:54;101123.02;;;17.46;100.00
49645;BME280;36494;50.730;-1.932;2023-07-20T09:11:19;101122.38;;;17.49;100.00
49645;BME280;36494;50.730;-1.932;2023-07-20T09:13:44;101124.42;;;17.61;100.00
49645;BME280;36494;50.730;-1.932;2023-07-20T09:16:13;101117.93;;;17.63;100.00
49645;BME280;36494;50.730;-1.932;2023-07-20T09:18:35;101118.55;;;17.70;100.00
49645;BME280;36494;50.730;-1.932;2023-07-20T09:21:02;101115.74;;;17.83;100.00
49645;BME280;36494;50.730;-1.932;2023-07-20T09:23:30;101115.01;;;17.93;100.00
49645;BME280;36494;50.730;-1.932;2023-07-20T09:25:51;101112.78;;;17.97;100.00
49645;BME280;36494;50.730;-1.932;2023-07-20T09:28:16;101113.67;;;18.06;100.00
49645;BME280;36494;50.730;-1.932;2023-07-20T09:30:41;101110.03;;;18.14;100.00
49645;BME280;36494;50.730;-1.932;2023-07-20T09:35:32;101102.83;;;18.25;100.00
49645;BME280;36494;50.730;-1.932;2023-07-20T09:37:59;101103.57;;;18.24;100.00
49645;BME280;36494;50.730;-1.932;2023-07-20T09:40:22;101101.91;;;18.37;100.00
49645;BME280;36494;50.730;-1.932;2023-07-20T09:42:48;101096.98;;;18.48;100.00
49645;BME280;36494;50.730;-1.932;2023-07-20T09:45:14;101098.87;;;18.48;100.00
49645;BME280;36494;50.730;-1.932;2023-07-20T09:47:39;101100.37;;;18.46;100.00
49645;BME280;36494;50.730;-1.932;2023-07-20T09:50:05;101097.84;;;18.49;100.00
49645;BME280;36494;50.730;-1.932;2023-07-20T09:52:30;101097.88;;;18.53;100.00
49645;BME280;36494;50.730;-1.932;2023-07-20T09:54:55;101093.17;;;18.66;100.00
49645;BME280;36494;50.730;-1.932;2023-07-20T09:57:21;101095.97;;;18.92;100.00
49645;BME280;36494;50.730;-1.932;2023-07-20T09:59:45;101095.60;;;19.23;100.00
49645;BME280;36494;50.730;-1.932;2023-07-20T10:02:16;101093.36;;;19.21;100.00
49645;BME280;36494;50.730;-1.932;2023-07-20T10:04:36;101093.28;;;19.16;100.00
49645;BME280;36494;50.730;-1.932;2023-07-20T10:07:05;101094.77;;;19.15;100.00
49645;BME280;36494;50.730;-1.932;2023-07-20T10:09:26;101092.89;;;19.17;100.00
49645;BME280;36494;50.730;-1.932;2023-07-20T10:11:53;101089.23;;;19.19;100.00
49645;BME280;36494;50.730;-1.932;2023-07-20T10:14:20;101087.31;;;19.28;100.00
49645;BME280;36494;50.730;-1.932;2023-07-20T10:16:46;101085.77;;;19.32;100.00
49645;BME280;36494;50.730;-1.932;2023-07-20T10:19:13;101083.63;;;19.54;100.00
49645;BME280;36494;50.730;-1.932;2023-07-20T10:21:33;101087.79;;;19.77;100.00
49645;BME280;36494;50.730;-1.932;2023-07-20T10:23:57;101080.83;;;20.13;100.00
49645;BME280;36494;50.730;-1.932;2023-07-20T10:26:22;101082.80;;;20.44;100.00
49645;BME280;36494;50.730;-1.932;2023-07-20T10:28:48;101081.90;;;20.49;100.00
49645;BME280;36494;50.730;-1.932;2023-07-20T10:31:14;101084.02;;;20.43;100.00
49645;BME280;36494;50.730;-1.932;2023-07-20T10:33:38;101082.66;;;20.33;100.00
49645;BME280;36494;50.730;-1.932;2023-07-20T10:36:05;101084.85;;;20.32;100.00
49645;BME280;36494;50.730;-1.932;2023-07-20T10:38:38;101081.25;;;20.22;100.00
49645;BME280;36494;50.730;-1.932;2023-07-20T10:40:54;101081.56;;;19.99;100.00
49645;BME280;36494;50.730;-1.932;2023-07-20T10:43:19;101080.40;;;20.06;100.00
49645;BME280;36494;50.730;-1.932;2023-07-20T10:45:49;101079.26;;;20.14;100.00
49645;BME280;36494;50.730;-1.932;2023-07-20T10:48:15;101081.76;;;20.34;100.00
49645;BME280;36494;50.730;-1.932;2023-07-20T10:50:35;101075.12;;;20.75;100.00
49645;BME280;36494;50.730;-1.932;2023-07-20T10:53:05;101079.58;;;20.73;100.00
49645;BME280;36494;50.730;-1.932;2023-07-20T10:55:26;101079.41;;;20.59;100.00
49645;BME280;36494;50.730;-1.932;2023-07-20T11:00:19;101074.92;;;20.40;100.00
49645;BME280;36494;50.730;-1.932;2023-07-20T11:02:46;101078.26;;;20.47;100.00
49645;BME280;36494;50.730;-1.932;2023-07-20T11:05:07;101078.10;;;20.32;100.00
49645;BME280;36494;50.730;-1.932;2023-07-20T11:07:37;101074.05;;;20.45;100.00
49645;BME280;36494;50.730;-1.932;2023-07-20T11:12:22;101072.22;;;21.24;100.00
49645;BME280;36494;50.730;-1.932;2023-07-20T11:14:53;101067.87;;;21.41;100.00
49645;BME280;36494;50.730;-1.932;2023-07-20T11:17:14;101068.75;;;21.49;100.00
49645;BME280;36494;50.730;-1.932;2023-07-20T11:19:38;101067.05;;;21.65;100.00
49645;BME280;36494;50.730;-1.932;2023-07-20T11:22:05;101062.69;;;21.26;100.00
49645;BME280;36494;50.730;-1.932;2023-07-20T11:24:28;101059.11;;;21.57;100.00
49645;BME280;36494;50.730;-1.932;2023-07-20T11:26:54;101060.10;;;21.48;100.00
49645;BME280;36494;50.730;-1.932;2023-07-20T11:29:20;101062.22;;;21.41;100.00
49645;BME280;36494;50.730;-1.932;2023-07-20T11:31:45;101060.72;;;21.48;100.00
49645;BME280;36494;50.730;-1.932;2023-07-20T11:34:11;101056.28;;;21.17;100.00
49645;BME280;36494;50.730;-1.932;2023-07-20T11:36:34;101054.90;;;21.71;100.00
49645;BME280;36494;50.730;-1.932;2023-07-20T11:39:00;101057.05;;;21.73;100.00
49645;BME280;36494;50.730;-1.932;2023-07-20T11:41:25;101051.21;;;22.02;100.00
49645;BME280;36494;50.730;-1.932;2023-07-20T11:43:50;101050.36;;;22.27;100.00
49645;BME280;36494;50.730;-1.932;2023-07-20T11:46:15;101042.89;;;22.32;100.00
49645;BME280;36494;50.730;-1.932;2023-07-20T11:48:40;101039.74;;;22.28;100.00
49645;BME280;36494;50.730;-1.932;2023-07-20T11:51:06;101039.56;;;22.50;100.00
49645;BME280;36494;50.730;-1.932;2023-07-20T11:53:31;101037.43;;;22.61;100.00
49645;BME280;36494;50.730;-1.932;2023-07-20T11:55:57;101031.61;;;22.56;100.00
49645;BME280;36494;50.730;-1.932;2023-07-20T11:58:22;101031.61;;;22.51;100.00
49645;BME280;36494;50.730;-1.932;2023-07-20T12:00:47;101026.56;;;22.54;100.00
49645;BME280;36494;50.730;-1.932;2023-07-20T12:03:12;101028.84;;;22.50;100.00
49645;BME280;36494;50.730;-1.932;2023-07-20T12:05:38;101030.78;;;22.56;100.00
49645;BME280;36494;50.730;-1.932;2023-07-20T12:08:04;101031.50;;;22.72;100.00
49645;BME280;36494;50.730;-1.932;2023-07-20T12:10:28;101026.28;;;22.53;100.00
49645;BME280;36494;50.730;-1.932;2023-07-20T12:12:53;101027.70;;;22.37;100.00
49645;BME280;36494;50.730;-1.932;2023-07-20T12:15:21;101035.26;;;22.03;100.00
49645;BME280;36494;50.730;-1.932;2023-07-20T12:17:43;101030.31;;;21.85;100.00
49645;BME280;36494;50.730;-1.932;2023-07-20T12:20:10;101025.28;;;21.66;100.00
49645;BME280;36494;50.730;-1.932;2023-07-20T12:22:38;101031.04;;;21.19;100.00
49645;BME280;36494;50.730;-1.932;2023-07-20T12:24:59;101028.14;;;21.23;100.00
49645;BME280;36494;50.730;-1.932;2023-07-20T12:27:28;101023.18;;;21.35;100.00